createdAt,value
2018-07-21T00:00:27.423Z,19.28
2018-07-21T00:01:27.636Z,19.25
2018-07-21T00:02:27.844Z,19.19
2018-07-21T00:03:28.065Z,19.11
2018-07-21T00:04:28.252Z,19.07
2018-07-21T00:05:28.444Z,19.14
2018-07-21T00:06:28.658Z,19.21
2018-07-21T00:07:28.843Z,19.29
2018-07-21T00:08:29.067Z,19.32
2018-07-21T00:09:29.284Z,19.23
2018-07-21T00:10:29.486Z,19.18
2018-07-21T00:11:29.676Z,19.14
2018-07-21T00:12:29.890Z,18.99
2018-07-21T00:13:30.079Z,19.06
2018-07-21T00:14:30.275Z,19.02
2018-07-21T00:15:30.482Z,19.14
2018-07-21T00:16:30.685Z,19.11
2018-07-21T00:17:30.893Z,19.14
2018-07-21T00:18:31.097Z,19.23
2018-07-21T00:19:31.310Z,19.26
2018-07-21T00:20:31.496Z,19.22
2018-07-21T00:21:31.690Z,19.23
2018-07-21T00:22:31.881Z,19.02
2018-07-21T00:23:32.092Z,19.02
2018-07-21T00:24:32.305Z,19.11
2018-07-21T00:25:32.497Z,19.19
2018-07-21T00:26:32.693Z,19.08
2018-07-21T00:27:32.908Z,19.22
2018-07-21T00:28:33.101Z,19.29
2018-07-21T00:29:33.303Z,19.32
2018-07-21T00:30:33.522Z,19.32
2018-07-21T00:31:33.723Z,19.37
2018-07-21T00:32:33.939Z,19.36
2018-07-21T00:33:34.116Z,19.23
2018-07-21T00:34:34.314Z,19.33
2018-07-21T00:35:34.605Z,19.36
2018-07-21T00:36:34.682Z,19.33
2018-07-21T00:39:06.505Z,19.46
2018-07-21T00:40:06.683Z,19.61
2018-07-21T00:41:06.891Z,19.51
2018-07-21T00:42:07.087Z,19.56
2018-07-21T00:43:07.283Z,19.59
2018-07-21T00:44:07.484Z,19.69
2018-07-21T00:45:07.681Z,19.65
2018-07-21T00:46:07.876Z,19.65
2018-07-21T00:47:08.086Z,19.65
2018-07-21T00:48:08.271Z,19.69
2018-07-21T00:49:08.495Z,19.71
2018-07-21T00:50:08.674Z,19.74
2018-07-21T00:51:08.883Z,19.77
2018-07-21T00:52:09.083Z,19.83
2018-07-21T00:53:09.282Z,19.94
2018-07-21T00:54:09.472Z,19.88
2018-07-21T00:55:09.685Z,19.88
2018-07-21T00:56:09.877Z,19.98
2018-07-21T00:58:41.995Z,19.91
2018-07-21T00:59:42.171Z,19.88
2018-07-21T01:00:42.374Z,19.96
2018-07-21T01:01:42.585Z,19.83
2018-07-21T01:02:42.767Z,19.88
2018-07-21T01:03:42.967Z,19.76
2018-07-21T01:04:43.191Z,19.78
2018-07-21T01:05:43.391Z,19.76
2018-07-21T01:06:43.604Z,19.81
2018-07-21T01:07:43.805Z,19.76
2018-07-21T01:08:44.018Z,19.59
2018-07-21T01:11:16.167Z,19.56
2018-07-21T01:12:16.342Z,19.33
2018-07-21T01:13:16.551Z,19.39
2018-07-21T01:14:16.800Z,19.40
2018-07-21T01:15:16.987Z,19.31
2018-07-21T01:16:17.175Z,19.19
2018-07-21T01:17:17.371Z,19.16
2018-07-21T01:18:17.565Z,19.02
2018-07-21T01:19:17.772Z,19.13
2018-07-21T01:20:17.960Z,19.16
2018-07-21T01:21:18.177Z,19.22
2018-07-21T01:22:18.381Z,19.23
2018-07-21T01:23:18.581Z,19.28
2018-07-21T01:24:18.766Z,19.19
2018-07-21T01:25:19.006Z,19.21
2018-07-21T01:26:19.193Z,19.28
2018-07-21T01:27:19.398Z,19.22
2018-07-21T01:28:19.585Z,19.21
2018-07-21T01:30:51.902Z,19.21
2018-07-21T01:31:52.084Z,19.14
2018-07-21T01:32:52.281Z,19.13
2018-07-21T01:33:52.480Z,19.13
2018-07-21T01:34:52.675Z,19.13
2018-07-21T01:35:52.890Z,19.02
2018-07-21T01:38:25.095Z,19.04
2018-07-21T01:39:25.292Z,19.02
2018-07-21T01:40:25.490Z,18.88
2018-07-21T01:41:25.693Z,18.92
2018-07-21T01:42:25.906Z,18.98
2018-07-21T01:43:26.114Z,18.99
2018-07-21T01:44:26.293Z,19.00
2018-07-21T01:45:26.509Z,18.84
2018-07-21T01:46:26.699Z,18.84
2018-07-21T01:47:26.885Z,18.90
2018-07-21T01:48:27.092Z,18.88
2018-07-21T01:49:27.280Z,18.85
2018-07-21T01:50:27.484Z,18.80
2018-07-21T01:51:27.674Z,18.81
2018-07-21T01:52:27.859Z,18.84
2018-07-21T01:53:28.039Z,18.87
2018-07-21T01:54:28.253Z,18.87
2018-07-21T01:55:28.450Z,18.76
2018-07-21T01:56:28.673Z,18.80
2018-07-21T01:57:28.891Z,18.70
2018-07-21T01:58:29.073Z,18.67
2018-07-21T01:59:29.289Z,18.67
2018-07-21T02:00:29.493Z,18.75
2018-07-21T02:01:29.696Z,18.82
2018-07-21T02:02:29.910Z,18.84
2018-07-21T02:03:30.117Z,18.75
2018-07-21T02:04:30.314Z,18.72
2018-07-21T02:05:30.509Z,18.76
2018-07-21T02:06:30.733Z,18.66
2018-07-21T02:07:30.925Z,18.72
2018-07-21T02:08:31.113Z,18.62
2018-07-21T02:09:31.324Z,18.65
2018-07-21T02:10:31.531Z,18.58
2018-07-21T02:11:31.734Z,18.66
2018-07-21T02:12:31.964Z,18.67
2018-07-21T02:13:32.137Z,18.69
2018-07-21T02:14:32.355Z,18.63
2018-07-21T02:15:32.548Z,18.80
2018-07-21T02:16:32.744Z,18.75
2018-07-21T02:17:32.929Z,18.82
2018-07-21T02:18:33.134Z,18.88
2018-07-21T02:19:33.320Z,18.81
2018-07-21T02:20:33.523Z,18.90
2018-07-21T02:21:33.728Z,18.85
2018-07-21T02:22:33.976Z,18.87
2018-07-21T02:23:34.137Z,18.70
2018-07-21T02:24:34.346Z,18.72
2018-07-21T02:25:34.539Z,18.75
2018-07-21T02:26:34.746Z,18.62
2018-07-21T02:27:34.976Z,18.50
2018-07-21T02:28:35.102Z,18.44
2018-07-21T02:29:35.324Z,18.50
2018-07-21T02:30:35.514Z,18.41
2018-07-21T02:31:35.723Z,18.48
2018-07-21T02:32:35.924Z,18.41
2018-07-21T02:33:36.125Z,18.42
2018-07-21T02:34:36.327Z,18.45
2018-07-21T02:35:36.515Z,18.55
2018-07-21T02:36:36.792Z,18.62
2018-07-21T02:37:36.872Z,18.66
2018-07-21T02:38:37.075Z,18.69
2018-07-21T02:39:37.269Z,18.87
2018-07-21T02:40:37.451Z,19.00
2018-07-21T02:41:37.658Z,19.07
2018-07-21T02:42:37.863Z,19.28
2018-07-21T02:43:38.111Z,19.31
2018-07-21T02:44:38.303Z,19.36
2018-07-21T02:45:38.515Z,19.36
2018-07-21T02:46:38.697Z,19.39
2018-07-21T02:47:38.885Z,19.43
2018-07-21T02:48:39.081Z,19.41
2018-07-21T02:49:39.277Z,19.50
2018-07-21T02:50:39.463Z,19.56
2018-07-21T02:51:39.673Z,19.56
2018-07-21T02:52:39.862Z,19.59
2018-07-21T02:53:40.050Z,19.61
2018-07-21T02:54:40.245Z,19.68
2018-07-21T02:55:40.444Z,19.65
2018-07-21T02:56:40.642Z,19.68
2018-07-21T02:57:40.846Z,19.63
2018-07-21T02:58:41.059Z,19.61
2018-07-21T02:59:41.269Z,19.58
2018-07-21T03:02:13.405Z,19.28
2018-07-21T03:03:13.582Z,19.18
2018-07-21T03:04:13.781Z,19.08
2018-07-21T03:05:14.003Z,19.07
2018-07-21T03:06:14.216Z,19.13
2018-07-21T03:07:14.414Z,19.22
2018-07-21T03:08:14.607Z,19.23
2018-07-21T03:09:14.796Z,19.33
2018-07-21T03:10:14.989Z,19.40
2018-07-21T03:11:15.208Z,19.47
2018-07-21T03:12:15.408Z,19.50
2018-07-21T03:13:15.613Z,19.54
2018-07-21T03:14:15.804Z,19.61
2018-07-21T03:15:15.993Z,19.61
2018-07-21T03:16:16.208Z,19.50
2018-07-21T03:17:16.409Z,19.58
2018-07-21T03:18:16.644Z,19.68
2018-07-21T03:19:16.830Z,19.62
2018-07-21T03:20:17.026Z,19.58
2018-07-21T03:21:17.237Z,19.63
2018-07-21T03:22:17.439Z,19.63
2018-07-21T03:23:17.655Z,19.68
2018-07-21T03:24:17.825Z,19.55
2018-07-21T03:25:18.038Z,19.61
2018-07-21T03:26:18.237Z,19.46
2018-07-21T03:27:18.437Z,19.41
2018-07-21T03:28:18.626Z,19.46
2018-07-21T03:29:18.823Z,19.36
2018-07-21T03:30:19.047Z,19.25
2018-07-21T03:31:19.264Z,19.25
2018-07-21T03:32:19.455Z,19.29
2018-07-21T03:33:19.648Z,19.23
2018-07-21T03:34:19.884Z,19.25
2018-07-21T03:35:20.041Z,19.26
2018-07-21T03:36:20.237Z,19.28
2018-07-21T03:37:20.453Z,19.37
2018-07-21T03:38:20.660Z,19.36
2018-07-21T03:39:20.843Z,19.47
2018-07-21T03:40:21.056Z,19.55
2018-07-21T03:41:21.257Z,19.59
2018-07-21T03:42:21.450Z,19.65
2018-07-21T03:43:21.663Z,19.63
2018-07-21T03:44:21.845Z,19.73
2018-07-21T03:45:22.062Z,19.78
2018-07-21T03:46:22.273Z,19.81
2018-07-21T03:47:22.496Z,19.86
2018-07-21T03:48:22.693Z,19.92
2018-07-21T03:49:22.908Z,19.87
2018-07-21T03:50:23.092Z,19.95
2018-07-21T03:51:23.285Z,19.92
2018-07-21T03:52:23.477Z,19.86
2018-07-21T03:53:23.686Z,19.87
2018-07-21T03:54:23.881Z,19.74
2018-07-21T03:55:24.110Z,19.74
2018-07-21T03:56:24.308Z,19.73
2018-07-21T03:57:24.515Z,19.56
2018-07-21T03:58:24.762Z,19.65
2018-07-21T03:59:24.988Z,19.51
2018-07-21T04:00:25.190Z,19.58
2018-07-21T04:01:25.355Z,19.62
2018-07-21T04:02:25.568Z,19.65
2018-07-21T04:03:25.787Z,19.61
2018-07-21T04:04:25.975Z,19.62
2018-07-21T04:05:26.178Z,19.65
2018-07-21T04:06:26.402Z,19.69
2018-07-21T04:08:58.263Z,19.77
2018-07-21T04:09:58.412Z,19.78
2018-07-21T04:10:58.602Z,19.71
2018-07-21T04:11:58.818Z,19.56
2018-07-21T04:12:59.005Z,19.62
2018-07-21T04:13:59.201Z,19.62
2018-07-21T04:14:59.409Z,19.61
2018-07-21T04:15:59.597Z,19.47
2018-07-21T04:16:59.783Z,19.58
2018-07-21T04:17:59.994Z,19.47
2018-07-21T04:19:00.210Z,19.50
2018-07-21T04:20:00.403Z,19.54
2018-07-21T04:21:00.604Z,19.56
2018-07-21T04:22:00.881Z,19.58
2018-07-21T04:24:32.581Z,19.56
2018-07-21T04:25:32.758Z,19.69
2018-07-21T04:26:32.950Z,19.78
2018-07-21T04:27:33.153Z,19.87
2018-07-21T04:28:33.340Z,20.13
2018-07-21T04:29:33.554Z,20.41
2018-07-21T04:30:33.769Z,20.73
2018-07-21T04:31:33.980Z,20.58
2018-07-21T04:32:34.187Z,20.69
2018-07-21T04:33:34.372Z,20.79
2018-07-21T04:36:06.523Z,21.43
2018-07-21T04:37:06.698Z,21.75
2018-07-21T04:38:06.914Z,21.94
2018-07-21T04:39:07.116Z,22.30
2018-07-21T04:40:07.315Z,22.39
2018-07-21T04:41:07.523Z,22.47
2018-07-21T04:42:07.731Z,22.55
2018-07-21T04:43:07.916Z,22.73
2018-07-21T04:44:08.138Z,22.75
2018-07-21T04:45:08.328Z,22.60
2018-07-21T04:47:40.492Z,22.68
2018-07-21T04:48:40.673Z,22.49
2018-07-21T04:49:40.892Z,22.20
2018-07-21T04:50:41.110Z,22.37
2018-07-21T04:51:41.312Z,22.57
2018-07-21T04:52:41.502Z,23.19
2018-07-21T04:53:41.712Z,23.53
2018-07-21T04:54:41.910Z,23.78
2018-07-21T04:55:42.125Z,24.13
2018-07-21T04:56:42.314Z,24.09
2018-07-21T04:57:42.528Z,24.16
2018-07-21T04:58:42.748Z,24.30
2018-07-21T04:59:42.954Z,24.60
2018-07-21T05:00:43.239Z,24.73
2018-07-21T05:01:43.379Z,24.49
2018-07-21T05:02:43.580Z,24.77
2018-07-21T05:03:43.781Z,25.03
2018-07-21T05:04:43.981Z,24.71
2018-07-21T05:05:44.178Z,25.18
2018-07-21T05:06:44.380Z,24.80
2018-07-21T05:07:44.582Z,25.02
2018-07-21T05:08:44.905Z,25.10
2018-07-21T05:09:44.982Z,24.90
2018-07-21T05:10:45.192Z,24.65
2018-07-21T05:11:45.387Z,24.57
2018-07-21T05:12:45.582Z,24.13
2018-07-21T05:13:45.783Z,23.33
2018-07-21T05:14:45.983Z,22.85
2018-07-21T05:15:46.200Z,22.64
2018-07-21T05:16:46.399Z,22.90
2018-07-21T05:17:46.594Z,22.97
2018-07-21T05:18:46.783Z,23.02
2018-07-21T05:19:46.984Z,23.35
2018-07-21T05:20:47.202Z,23.57
2018-07-21T05:21:47.414Z,23.47
2018-07-21T05:22:47.626Z,23.61
2018-07-21T05:23:47.822Z,23.72
2018-07-21T05:24:48.024Z,23.55
2018-07-21T05:27:20.160Z,23.94
2018-07-21T05:28:20.343Z,24.00
2018-07-21T05:29:20.654Z,24.02
2018-07-21T05:30:20.726Z,24.12
2018-07-21T05:32:52.857Z,24.78
2018-07-21T05:33:53.040Z,25.03
2018-07-21T05:34:53.259Z,25.25
2018-07-21T05:35:53.437Z,25.72
2018-07-21T05:36:53.647Z,25.99
2018-07-21T05:37:53.861Z,26.36
2018-07-21T05:38:54.075Z,26.72
2018-07-21T05:39:54.273Z,27.19
2018-07-21T05:40:54.480Z,27.17
2018-07-21T05:41:54.689Z,26.75
2018-07-21T05:42:54.976Z,26.92
2018-07-21T05:45:27.142Z,26.44
2018-07-21T05:46:27.329Z,26.57
2018-07-21T05:47:27.535Z,26.47
2018-07-21T05:48:27.738Z,26.57
2018-07-21T05:49:27.953Z,26.09
2018-07-21T05:50:28.155Z,25.83
2018-07-21T05:51:28.370Z,25.65
2018-07-21T05:52:28.579Z,25.82
2018-07-21T05:53:28.789Z,26.40
2018-07-21T05:54:29.069Z,27.03
2018-07-21T05:55:29.222Z,26.07
2018-07-21T05:56:29.430Z,26.43
2018-07-21T05:57:29.624Z,26.57
2018-07-21T05:58:29.814Z,26.51
2018-07-21T05:59:30.010Z,26.58
2018-07-21T06:00:30.233Z,26.63
2018-07-21T06:01:30.453Z,26.76
2018-07-21T06:02:30.671Z,27.28
2018-07-21T06:03:30.889Z,27.79
2018-07-21T06:04:31.136Z,27.79
2018-07-21T06:05:31.338Z,27.70
2018-07-21T06:06:31.556Z,27.65
2018-07-21T06:07:31.761Z,27.49
2018-07-21T06:08:31.980Z,27.97
2018-07-21T06:09:32.153Z,28.29
2018-07-21T06:10:32.426Z,28.30
2018-07-21T06:11:32.601Z,28.62
2018-07-21T06:12:32.794Z,28.39
2018-07-21T06:15:05.023Z,28.04
2018-07-21T06:16:05.208Z,28.18
2018-07-21T06:17:05.452Z,28.19
2018-07-21T06:18:05.624Z,28.31
2018-07-21T06:19:05.852Z,28.55
2018-07-21T06:20:06.076Z,28.67
2018-07-21T06:21:06.286Z,28.51
2018-07-21T06:22:06.514Z,28.33
2018-07-21T06:23:06.728Z,28.34
2018-07-21T06:24:06.928Z,28.37
2018-07-21T06:25:07.159Z,28.61
2018-07-21T06:26:07.319Z,28.25
2018-07-21T06:27:07.539Z,28.33
2018-07-21T06:28:07.779Z,28.68
2018-07-21T06:29:07.949Z,28.66
2018-07-21T06:30:08.162Z,28.58
2018-07-21T06:31:08.385Z,28.62
2018-07-21T06:32:08.585Z,28.85
2018-07-21T06:33:08.795Z,29.04
2018-07-21T06:34:09.012Z,28.88
2018-07-21T06:35:09.205Z,28.67
2018-07-21T06:36:09.434Z,29.06
2018-07-21T06:37:09.644Z,29.04
2018-07-21T06:38:09.856Z,28.89
2018-07-21T06:39:10.081Z,28.93
2018-07-21T06:40:10.278Z,29.00
2018-07-21T06:41:10.472Z,28.74
2018-07-21T06:42:10.684Z,28.33
2018-07-21T06:43:10.897Z,28.04
2018-07-21T06:44:11.092Z,28.03
2018-07-21T06:45:11.302Z,28.02
2018-07-21T06:46:11.504Z,28.25
2018-07-21T06:47:11.711Z,28.46
2018-07-21T06:48:11.901Z,28.64
2018-07-21T06:49:12.100Z,29.14
2018-07-21T06:50:12.306Z,29.33
2018-07-21T06:52:44.476Z,28.40
2018-07-21T06:53:44.664Z,28.31
2018-07-21T06:54:44.865Z,28.00
2018-07-21T06:55:45.094Z,28.29
2018-07-21T06:56:45.319Z,27.99
2018-07-21T06:57:45.520Z,28.11
2018-07-21T06:58:45.723Z,28.06
2018-07-21T06:59:45.939Z,27.70
2018-07-21T07:00:46.137Z,27.19
2018-07-21T07:01:46.362Z,26.92
2018-07-21T07:02:46.554Z,26.50
2018-07-21T07:03:46.757Z,26.36
2018-07-21T07:04:47.051Z,26.02
2018-07-21T07:05:47.178Z,25.82
2018-07-21T07:06:47.382Z,25.88
2018-07-21T07:07:47.588Z,25.92
2018-07-21T07:08:47.780Z,25.87
2018-07-21T07:09:47.979Z,26.09
2018-07-21T07:10:48.202Z,26.17
2018-07-21T07:11:48.410Z,26.52
2018-07-21T07:12:48.609Z,26.99
2018-07-21T07:13:48.820Z,27.25
2018-07-21T07:14:49.040Z,27.74
2018-07-21T07:15:49.252Z,27.63
2018-07-21T07:16:49.470Z,27.77
2018-07-21T07:17:49.684Z,27.92
2018-07-21T07:18:49.884Z,27.85
2018-07-21T07:19:50.106Z,28.24
2018-07-21T07:20:50.291Z,28.43
2018-07-21T07:21:50.502Z,28.59
2018-07-21T07:22:50.696Z,28.83
2018-07-21T07:23:50.894Z,29.15
2018-07-21T07:24:51.113Z,28.88
2018-07-21T07:27:23.536Z,29.18
2018-07-21T07:28:23.640Z,28.89
2018-07-21T07:29:23.858Z,28.34
2018-07-21T07:30:24.067Z,28.14
2018-07-21T07:31:24.267Z,27.97
2018-07-21T07:32:24.487Z,27.74
2018-07-21T07:33:24.684Z,27.70
2018-07-21T07:34:24.912Z,27.82
2018-07-21T07:35:25.115Z,28.07
2018-07-21T07:36:25.337Z,28.43
2018-07-21T07:37:25.534Z,28.46
2018-07-21T07:38:25.742Z,28.31
2018-07-21T07:39:25.937Z,28.02
2018-07-21T07:40:26.154Z,27.57
2018-07-21T07:41:26.353Z,27.70
2018-07-21T07:42:26.574Z,27.84
2018-07-21T07:43:26.786Z,28.24
2018-07-21T07:44:26.995Z,28.00
2018-07-21T07:45:27.206Z,28.04
2018-07-21T07:46:27.417Z,28.06
2018-07-21T07:47:27.623Z,28.00
2018-07-21T07:48:27.838Z,27.74
2018-07-21T07:49:28.054Z,27.32
2018-07-21T07:50:28.274Z,26.81
2018-07-21T07:51:28.486Z,26.44
2018-07-21T07:52:28.701Z,26.01
2018-07-21T07:53:28.981Z,25.76
2018-07-21T07:54:29.134Z,25.91
2018-07-21T07:55:29.351Z,26.13
2018-07-21T07:56:29.556Z,26.09
2018-07-21T07:57:29.763Z,26.36
2018-07-21T07:58:29.960Z,26.35
2018-07-21T07:59:30.175Z,26.29
2018-07-21T08:00:30.423Z,26.32
2018-07-21T08:01:30.583Z,26.45
2018-07-21T08:02:30.775Z,26.47
2018-07-21T08:03:30.982Z,26.52
2018-07-21T08:04:31.195Z,26.43
2018-07-21T08:05:31.384Z,26.25
2018-07-21T08:06:31.613Z,25.55
2018-07-21T08:07:31.809Z,25.18
2018-07-21T08:08:32.161Z,24.91
2018-07-21T08:09:32.209Z,24.84
2018-07-21T08:10:32.431Z,24.21
2018-07-21T08:11:32.680Z,23.97
2018-07-21T08:12:32.861Z,24.05
2018-07-21T08:13:33.078Z,24.34
2018-07-21T08:14:33.293Z,24.61
2018-07-21T08:15:33.480Z,24.80
2018-07-21T08:16:33.708Z,25.00
2018-07-21T08:17:33.939Z,25.18
2018-07-21T08:18:34.132Z,25.13
2018-07-21T08:19:34.395Z,25.18
2018-07-21T08:20:34.556Z,25.10
2018-07-21T08:21:34.766Z,24.99
2018-07-21T08:22:34.984Z,25.15
2018-07-21T08:23:35.205Z,25.05
2018-07-21T08:24:35.415Z,25.15
2018-07-21T08:25:35.617Z,25.15
2018-07-21T08:26:35.832Z,24.95
2018-07-21T08:27:36.073Z,24.99
2018-07-21T08:28:36.301Z,25.05
2018-07-21T08:29:36.588Z,25.25
2018-07-21T08:30:36.746Z,25.33
2018-07-21T08:31:36.951Z,25.21
2018-07-21T08:32:37.144Z,24.80
2018-07-21T08:33:37.334Z,24.47
2018-07-21T08:34:37.564Z,24.43
2018-07-21T08:35:37.732Z,24.32
2018-07-21T08:36:37.949Z,24.46
2018-07-21T08:37:38.145Z,24.83
2018-07-21T08:38:38.336Z,25.21
2018-07-21T08:39:38.552Z,25.32
2018-07-21T08:40:38.759Z,25.24
2018-07-21T08:41:38.984Z,24.80
2018-07-21T08:42:39.169Z,24.69
2018-07-21T08:43:39.391Z,25.08
2018-07-21T08:44:39.607Z,25.32
2018-07-21T08:45:39.808Z,25.33
2018-07-21T08:46:40.006Z,25.47
2018-07-21T08:47:40.210Z,25.67
2018-07-21T08:48:40.404Z,25.67
2018-07-21T08:49:40.624Z,25.69
2018-07-21T08:50:40.821Z,25.97
2018-07-21T08:51:41.042Z,25.90
2018-07-21T08:52:41.255Z,26.21
2018-07-21T08:53:41.472Z,26.33
2018-07-21T08:54:41.670Z,26.23
2018-07-21T08:55:41.940Z,26.26
2018-07-21T08:56:42.108Z,26.20
2018-07-21T08:57:42.321Z,26.25
2018-07-21T08:58:42.551Z,26.33
2018-07-21T08:59:42.744Z,26.12
2018-07-21T09:00:42.990Z,26.15
2018-07-21T09:01:43.181Z,26.06
2018-07-21T09:02:43.418Z,26.17
2018-07-21T09:03:43.613Z,25.83
2018-07-21T09:04:43.828Z,25.40
2018-07-21T09:05:44.059Z,25.05
2018-07-21T09:06:44.236Z,25.20
2018-07-21T09:07:44.457Z,25.30
2018-07-21T09:08:44.677Z,25.54
2018-07-21T09:09:44.869Z,25.55
2018-07-21T09:10:45.080Z,25.40
2018-07-21T09:11:45.264Z,24.99
2018-07-21T09:12:45.492Z,25.13
2018-07-21T09:13:45.700Z,25.39
2018-07-21T09:14:45.896Z,25.32
2018-07-21T09:15:46.102Z,25.64
2018-07-21T09:16:46.315Z,25.92
2018-07-21T09:17:46.538Z,26.01
2018-07-21T09:18:46.726Z,25.58
2018-07-21T09:19:46.948Z,25.80
2018-07-21T09:20:47.141Z,25.91
2018-07-21T09:23:19.448Z,26.10
2018-07-21T09:24:19.630Z,26.30
2018-07-21T09:25:19.840Z,25.75
2018-07-21T09:26:20.054Z,25.54
2018-07-21T09:27:20.277Z,25.30
2018-07-21T09:28:20.475Z,25.38
2018-07-21T09:29:20.705Z,25.36
2018-07-21T09:30:20.902Z,25.17
2018-07-21T09:31:21.103Z,25.36
2018-07-21T09:33:53.351Z,25.70
2018-07-21T09:34:53.531Z,25.47
2018-07-21T09:35:53.723Z,25.55
2018-07-21T09:36:53.920Z,25.87
2018-07-21T09:37:54.124Z,26.10
2018-07-21T09:40:26.282Z,26.66
2018-07-21T09:41:26.476Z,26.94
2018-07-21T09:42:26.690Z,26.87
2018-07-21T09:43:26.919Z,27.22
2018-07-21T09:44:27.129Z,27.29
2018-07-21T09:45:27.327Z,26.85
2018-07-21T09:46:27.529Z,26.76
2018-07-21T09:47:27.733Z,26.99
2018-07-21T09:48:27.947Z,27.13
2018-07-21T09:49:28.137Z,27.31
2018-07-21T09:50:28.327Z,27.34
2018-07-21T09:51:28.528Z,27.31
2018-07-21T09:52:28.746Z,27.13
2018-07-21T09:53:28.956Z,26.39
2018-07-21T09:54:29.154Z,25.73
2018-07-21T09:55:29.437Z,25.91
2018-07-21T09:56:29.605Z,26.01
2018-07-21T09:57:29.823Z,26.18
2018-07-21T10:00:01.687Z,26.52
2018-07-21T10:01:01.871Z,26.69
2018-07-21T10:02:02.060Z,26.69
2018-07-21T10:03:02.253Z,26.73
2018-07-21T10:04:02.464Z,26.82
2018-07-21T10:05:02.686Z,26.89
2018-07-21T10:06:02.894Z,26.89
2018-07-21T10:07:03.121Z,27.02
2018-07-21T10:08:03.311Z,26.99
2018-07-21T10:09:03.524Z,27.02
2018-07-21T10:10:03.726Z,26.89
2018-07-21T10:11:03.961Z,26.85
2018-07-21T10:12:04.192Z,26.87
2018-07-21T10:13:04.397Z,26.81
2018-07-21T10:14:04.606Z,26.62
2018-07-21T10:15:04.891Z,26.63
2018-07-21T10:16:04.977Z,26.50
2018-07-21T10:17:05.198Z,26.29
2018-07-21T10:18:05.377Z,26.57
2018-07-21T10:19:05.592Z,26.55
2018-07-21T10:20:05.799Z,26.47
2018-07-21T10:21:05.996Z,26.57
2018-07-21T10:22:06.230Z,26.62
2018-07-21T10:23:06.438Z,26.62
2018-07-21T10:24:06.635Z,26.33
2018-07-21T10:25:06.843Z,26.23
2018-07-21T10:26:07.111Z,26.23
2018-07-21T10:27:07.197Z,26.20
2018-07-21T10:28:07.441Z,26.15
2018-07-21T10:29:07.612Z,25.90
2018-07-21T10:30:07.834Z,26.02
2018-07-21T10:31:08.007Z,25.83
2018-07-21T10:32:08.198Z,25.83
2018-07-21T10:33:08.407Z,26.02
2018-07-21T10:34:08.594Z,25.75
2018-07-21T10:35:08.813Z,25.70
2018-07-21T10:36:09.015Z,25.83
2018-07-21T10:37:09.250Z,25.92
2018-07-21T10:38:09.492Z,26.05
2018-07-21T10:39:09.668Z,25.87
2018-07-21T10:40:09.878Z,25.61
2018-07-21T10:41:10.070Z,25.67
2018-07-21T10:42:10.266Z,25.60
2018-07-21T10:43:10.529Z,25.50
2018-07-21T10:44:10.654Z,25.43
2018-07-21T10:45:10.813Z,25.46
2018-07-21T10:46:11.007Z,25.52
2018-07-21T10:47:11.213Z,25.46
2018-07-21T10:48:11.420Z,25.45
2018-07-21T10:49:11.643Z,25.40
2018-07-21T10:50:11.843Z,25.55
2018-07-21T10:51:12.024Z,25.61
2018-07-21T10:53:44.437Z,25.79
2018-07-21T10:54:44.500Z,25.94
2018-07-21T10:55:44.719Z,25.95
2018-07-21T10:56:44.913Z,25.97
2018-07-21T10:57:45.145Z,25.88
2018-07-21T10:58:45.342Z,25.73
2018-07-21T10:59:45.561Z,25.85
2018-07-21T11:00:45.782Z,26.07
2018-07-21T11:01:46.002Z,26.17
2018-07-21T11:02:46.223Z,26.23
2018-07-21T11:03:46.439Z,26.05
2018-07-21T11:04:46.653Z,26.17
2018-07-21T11:05:46.909Z,26.23
2018-07-21T11:06:47.004Z,26.54
2018-07-21T11:07:47.203Z,26.50
2018-07-21T11:08:47.412Z,26.29
2018-07-21T11:11:20.459Z,26.52
2018-07-21T11:12:20.643Z,26.51
2018-07-21T11:13:20.850Z,26.76
2018-07-21T11:14:21.066Z,26.66
2018-07-21T11:15:21.316Z,26.63
2018-07-21T11:16:21.483Z,26.52
2018-07-21T11:17:21.685Z,26.23
2018-07-21T11:18:21.896Z,26.28
2018-07-21T11:19:22.108Z,26.43
2018-07-21T11:20:22.305Z,26.65
2018-07-21T11:21:22.510Z,26.44
2018-07-21T11:22:22.742Z,26.29
2018-07-21T11:23:22.955Z,26.23
2018-07-21T11:24:23.175Z,25.99
2018-07-21T11:25:23.392Z,25.98
2018-07-21T11:26:23.583Z,26.23
2018-07-21T11:27:23.806Z,26.20
2018-07-21T11:28:24.009Z,26.07
2018-07-21T11:29:24.240Z,26.23
2018-07-21T11:30:24.466Z,26.05
2018-07-21T11:31:24.681Z,26.18
2018-07-21T11:32:24.885Z,26.21
2018-07-21T11:33:25.081Z,26.35
2018-07-21T11:34:25.297Z,26.32
2018-07-21T11:35:25.617Z,26.54
2018-07-21T11:36:25.752Z,26.29
2018-07-21T11:37:25.936Z,26.28
2018-07-21T11:38:26.121Z,26.37
2018-07-21T11:39:26.336Z,26.33
2018-07-21T11:40:26.541Z,26.30
2018-07-21T11:41:26.751Z,26.52
2018-07-21T11:42:26.954Z,26.58
2018-07-21T11:43:27.160Z,26.62
2018-07-21T11:44:27.360Z,26.58
2018-07-21T11:45:27.542Z,26.67
2018-07-21T11:46:27.752Z,26.72
2018-07-21T11:47:27.969Z,26.72
2018-07-21T11:48:28.167Z,26.84
2018-07-21T11:49:28.406Z,26.99
2018-07-21T11:50:28.623Z,27.02
2018-07-21T11:51:28.847Z,27.00
2018-07-21T11:52:29.071Z,27.18
2018-07-21T11:53:29.275Z,27.25
2018-07-21T11:54:29.483Z,27.39
2018-07-21T11:55:29.671Z,27.39
2018-07-21T11:56:29.877Z,27.13
2018-07-21T11:57:30.102Z,27.10
2018-07-21T11:58:30.319Z,27.13
2018-07-21T11:59:30.513Z,27.19
2018-07-21T12:00:30.700Z,27.28
2018-07-21T12:01:30.922Z,27.39
2018-07-21T12:02:31.114Z,27.14
2018-07-21T12:03:31.328Z,27.22
2018-07-21T12:04:31.538Z,26.99
2018-07-21T12:05:31.737Z,27.21
2018-07-21T12:06:31.947Z,27.25
2018-07-21T12:07:32.144Z,27.54
2018-07-21T12:08:32.363Z,27.47
2018-07-21T12:09:32.526Z,27.44
2018-07-21T12:10:32.764Z,27.37
2018-07-21T12:11:32.965Z,27.32
2018-07-21T12:12:33.186Z,27.67
2018-07-21T12:13:33.421Z,27.69
2018-07-21T12:14:33.575Z,27.94
2018-07-21T12:15:33.804Z,27.75
2018-07-21T12:16:34.006Z,27.96
2018-07-21T12:17:34.210Z,27.85
2018-07-21T12:18:34.446Z,27.92
2018-07-21T12:19:34.641Z,27.77
2018-07-21T12:20:34.832Z,27.74
2018-07-21T12:21:35.027Z,27.84
2018-07-21T12:22:35.241Z,27.84
2018-07-21T12:23:35.457Z,27.92
2018-07-21T12:24:35.679Z,27.99
2018-07-21T12:25:35.891Z,27.96
2018-07-21T12:26:36.106Z,27.99
2018-07-21T12:27:36.364Z,27.99
2018-07-21T12:28:36.497Z,28.12
2018-07-21T12:29:36.700Z,28.07
2018-07-21T12:30:36.916Z,28.03
2018-07-21T12:31:37.130Z,27.94
2018-07-21T12:32:37.302Z,27.78
2018-07-21T12:35:09.456Z,27.96
2018-07-21T12:36:09.634Z,28.21
2018-07-21T12:37:09.855Z,28.19
2018-07-21T12:38:10.079Z,28.37
2018-07-21T12:39:10.289Z,28.06
2018-07-21T12:40:10.561Z,28.24
2018-07-21T12:41:10.723Z,28.29
2018-07-21T12:42:10.942Z,28.19
2018-07-21T12:43:11.160Z,28.33
2018-07-21T12:44:11.381Z,28.55
2018-07-21T12:45:11.589Z,28.48
2018-07-21T12:46:11.800Z,28.36
2018-07-21T12:47:12.002Z,28.40
2018-07-21T12:48:12.188Z,28.12
2018-07-21T12:49:12.414Z,28.27
2018-07-21T12:50:12.639Z,28.17
2018-07-21T12:51:12.831Z,28.18
2018-07-21T12:52:13.054Z,28.09
2018-07-21T12:53:13.275Z,28.24
2018-07-21T12:54:13.491Z,28.25
2018-07-21T12:55:13.696Z,28.18
2018-07-21T12:56:13.905Z,28.30
2018-07-21T12:57:14.087Z,28.22
2018-07-21T12:58:14.303Z,28.25
2018-07-21T13:00:46.147Z,28.22
2018-07-21T13:01:46.379Z,28.33
2018-07-21T13:02:46.549Z,28.22
2018-07-21T13:03:46.788Z,28.30
2018-07-21T13:04:46.997Z,28.33
2018-07-21T13:05:47.215Z,28.00
2018-07-21T13:06:47.431Z,28.11
2018-07-21T13:07:47.628Z,28.14
2018-07-21T13:08:47.835Z,28.14
2018-07-21T13:09:48.136Z,28.22
2018-07-21T13:10:48.267Z,28.25
2018-07-21T13:11:48.588Z,28.36
2018-07-21T13:12:48.653Z,28.37
2018-07-21T13:13:48.872Z,28.12
2018-07-21T13:14:49.076Z,28.29
2018-07-21T13:15:49.282Z,28.18
2018-07-21T13:16:49.500Z,28.14
2018-07-21T13:17:49.706Z,28.21
2018-07-21T13:18:49.903Z,28.04
2018-07-21T13:19:50.173Z,27.82
2018-07-21T13:20:50.309Z,28.12
2018-07-21T13:21:50.531Z,27.78
2018-07-21T13:22:50.803Z,27.87
2018-07-21T13:23:50.916Z,27.94
2018-07-21T13:24:51.121Z,27.84
2018-07-21T13:25:51.339Z,27.99
2018-07-21T13:26:51.553Z,28.00
2018-07-21T13:27:51.776Z,28.02
2018-07-21T13:28:51.967Z,28.03
2018-07-21T13:29:52.166Z,28.15
2018-07-21T13:30:52.368Z,28.03
2018-07-21T13:31:52.564Z,28.03